sensor_id;sensor_type;location;lat;lon;timestamp;temperature;humidity
14485;DHT22;7328;50.812;4.422;2022-10-16T00:00:57;-17.00;99.90
14485;DHT22;7328;50.812;4.422;2022-10-16T00:03:23;-17.20;99.90
14485;DHT22;7328;50.812;4.422;2022-10-16T00:05:49;-20.80;99.90
14485;DHT22;7328;50.812;4.422;2022-10-16T00:08:15;-22.60;99.90
14485;DHT22;7328;50.812;4.422;2022-10-16T00:10:40;-24.90;99.90
14485;DHT22;7328;50.812;4.422;2022-10-16T00:13:07;-23.70;99.90
14485;DHT22;7328;50.812;4.422;2022-10-16T00:15:37;-22.40;99.90
14485;DHT22;7328;50.812;4.422;2022-10-16T00:18:05;-24.00;99.90
14485;DHT22;7328;50.812;4.422;2022-10-16T00:20:34;-24.50;99.90
14485;DHT22;7328;50.812;4.422;2022-10-16T00:23:00;-19.90;99.90
14485;DHT22;7328;50.812;4.422;2022-10-16T00:25:25;-23.70;99.90
14485;DHT22;7328;50.812;4.422;2022-10-16T00:27:51;-21.00;99.90
14485;DHT22;7328;50.812;4.422;2022-10-16T00:30:17;-24.40;99.90
14485;DHT22;7328;50.812;4.422;2022-10-16T00:32:43;-18.90;99.90
14485;DHT22;7328;50.812;4.422;2022-10-16T00:35:09;-17.90;99.90
14485;DHT22;7328;50.812;4.422;2022-10-16T00:37:35;-19.20;99.90
14485;DHT22;7328;50.812;4.422;2022-10-16T00:40:01;-19.00;99.90
14485;DHT22;7328;50.812;4.422;2022-10-16T00:42:26;-23.90;99.90
14485;DHT22;7328;50.812;4.422;2022-10-16T00:44:56;-24.50;99.90
14485;DHT22;7328;50.812;4.422;2022-10-16T00:47:29;-24.90;99.90
14485;DHT22;7328;50.812;4.422;2022-10-16T00:52:32;-17.00;99.90
14485;DHT22;7328;50.812;4.422;2022-10-16T00:54:58;-21.80;99.90
14485;DHT22;7328;50.812;4.422;2022-10-16T00:57:25;-15.90;99.90
14485;DHT22;7328;50.812;4.422;2022-10-16T00:59:51;-17.00;99.90
14485;DHT22;7328;50.812;4.422;2022-10-16T01:02:17;-20.50;99.90
14485;DHT22;7328;50.812;4.422;2022-10-16T01:04:47;-23.00;99.90
14485;DHT22;7328;50.812;4.422;2022-10-16T01:08:03;-20.50;99.90
14485;DHT22;7328;50.812;4.422;2022-10-16T01:17:49;-18.30;99.90
14485;DHT22;7328;50.812;4.422;2022-10-16T01:28:15;-18.10;99.90
14485;DHT22;7328;50.812;4.422;2022-10-16T01:30:45;-17.90;99.90
14485;DHT22;7328;50.812;4.422;2022-10-16T01:33:24;-17.00;99.90
14485;DHT22;7328;50.812;4.422;2022-10-16T01:35:55;-18.60;99.90
14485;DHT22;7328;50.812;4.422;2022-10-16T01:38:31;-15.60;99.90
14485;DHT22;7328;50.812;4.422;2022-10-16T01:41:01;-17.20;99.90
14485;DHT22;7328;50.812;4.422;2022-10-16T01:44:09;-18.60;99.90
14485;DHT22;7328;50.812;4.422;2022-10-16T01:46:40;-17.80;99.90
14485;DHT22;7328;50.812;4.422;2022-10-16T01:49:09;-19.80;99.90
14485;DHT22;7328;50.812;4.422;2022-10-16T01:51:37;-19.90;99.90
14485;DHT22;7328;50.812;4.422;2022-10-16T01:54:06;-20.40;99.90
14485;DHT22;7328;50.812;4.422;2022-10-16T01:56:32;-18.20;99.90
14485;DHT22;7328;50.812;4.422;2022-10-16T01:59:02;-22.30;99.90
14485;DHT22;7328;50.812;4.422;2022-10-16T02:01:32;-20.50;99.90
14485;DHT22;7328;50.812;4.422;2022-10-16T02:04:04;-18.50;99.90
14485;DHT22;7328;50.812;4.422;2022-10-16T02:06:30;-19.60;99.90
14485;DHT22;7328;50.812;4.422;2022-10-16T02:08:57;-17.30;99.90
14485;DHT22;7328;50.812;4.422;2022-10-16T02:11:24;-20.50;99.90
14485;DHT22;7328;50.812;4.422;2022-10-16T02:14:00;-17.60;99.90
14485;DHT22;7328;50.812;4.422;2022-10-16T02:16:37;-17.40;99.90
14485;DHT22;7328;50.812;4.422;2022-10-16T02:19:05;-17.50;99.90
14485;DHT22;7328;50.812;4.422;2022-10-16T02:21:51;-19.30;99.90
14485;DHT22;7328;50.812;4.422;2022-10-16T02:29:53;-16.30;99.90
14485;DHT22;7328;50.812;4.422;2022-10-16T02:32:27;-17.10;99.90
14485;DHT22;7328;50.812;4.422;2022-10-16T02:34:56;-21.90;99.90
14485;DHT22;7328;50.812;4.422;2022-10-16T02:37:23;-20.50;99.90
14485;DHT22;7328;50.812;4.422;2022-10-16T02:39:50;-23.50;99.90
14485;DHT22;7328;50.812;4.422;2022-10-16T02:42:18;-23.30;99.90
14485;DHT22;7328;50.812;4.422;2022-10-16T02:44:44;-19.20;99.90
14485;DHT22;7328;50.812;4.422;2022-10-16T02:47:09;-17.00;99.90
14485;DHT22;7328;50.812;4.422;2022-10-16T02:49:35;-19.40;99.90
14485;DHT22;7328;50.812;4.422;2022-10-16T02:52:01;-17.10;99.90
14485;DHT22;7328;50.812;4.422;2022-10-16T02:54:27;-16.60;99.90
14485;DHT22;7328;50.812;4.422;2022-10-16T02:56:52;-15.20;99.90
14485;DHT22;7328;50.812;4.422;2022-10-16T02:59:18;-17.10;99.90
14485;DHT22;7328;50.812;4.422;2022-10-16T03:01:44;-17.60;99.90
14485;DHT22;7328;50.812;4.422;2022-10-16T03:04:10;-18.80;99.90
14485;DHT22;7328;50.812;4.422;2022-10-16T03:06:35;-20.90;99.90
14485;DHT22;7328;50.812;4.422;2022-10-16T03:09:01;-22.20;99.90
14485;DHT22;7328;50.812;4.422;2022-10-16T03:11:27;-22.50;99.90
14485;DHT22;7328;50.812;4.422;2022-10-16T03:13:53;-19.80;99.90
14485;DHT22;7328;50.812;4.422;2022-10-16T03:16:19;-18.00;99.90
14485;DHT22;7328;50.812;4.422;2022-10-16T03:18:48;-16.80;99.90
14485;DHT22;7328;50.812;4.422;2022-10-16T03:21:15;-15.80;99.90
14485;DHT22;7328;50.812;4.422;2022-10-16T03:23:41;-16.80;99.90
14485;DHT22;7328;50.812;4.422;2022-10-16T03:26:06;-19.70;99.90
14485;DHT22;7328;50.812;4.422;2022-10-16T03:28:32;-19.20;99.90
14485;DHT22;7328;50.812;4.422;2022-10-16T03:30:58;-19.40;99.90
14485;DHT22;7328;50.812;4.422;2022-10-16T03:33:23;-21.50;99.90
14485;DHT22;7328;50.812;4.422;2022-10-16T03:35:53;-19.10;99.90
14485;DHT22;7328;50.812;4.422;2022-10-16T03:38:21;-18.50;99.90
14485;DHT22;7328;50.812;4.422;2022-10-16T03:40:47;-19.80;99.90
14485;DHT22;7328;50.812;4.422;2022-10-16T03:43:12;-18.70;99.90
14485;DHT22;7328;50.812;4.422;2022-10-16T03:45:38;-20.00;99.90
14485;DHT22;7328;50.812;4.422;2022-10-16T03:48:04;-19.70;99.90
14485;DHT22;7328;50.812;4.422;2022-10-16T03:50:29;-17.00;99.90
14485;DHT22;7328;50.812;4.422;2022-10-16T03:52:55;-17.40;99.90
14485;DHT22;7328;50.812;4.422;2022-10-16T03:55:21;-18.50;99.90
14485;DHT22;7328;50.812;4.422;2022-10-16T03:57:47;-20.40;99.90
14485;DHT22;7328;50.812;4.422;2022-10-16T04:00:13;-24.10;99.90
14485;DHT22;7328;50.812;4.422;2022-10-16T04:02:39;-20.20;99.90
14485;DHT22;7328;50.812;4.422;2022-10-16T04:05:05;-19.30;99.90
14485;DHT22;7328;50.812;4.422;2022-10-16T04:07:31;-17.40;99.90
14485;DHT22;7328;50.812;4.422;2022-10-16T04:09:57;-17.60;99.90
14485;DHT22;7328;50.812;4.422;2022-10-16T04:12:25;-18.20;99.90
14485;DHT22;7328;50.812;4.422;2022-10-16T04:14:50;-20.70;99.90
14485;DHT22;7328;50.812;4.422;2022-10-16T04:17:16;-19.10;99.90
14485;DHT22;7328;50.812;4.422;2022-10-16T04:19:42;-17.00;99.90
14485;DHT22;7328;50.812;4.422;2022-10-16T04:22:08;-18.80;99.90
14485;DHT22;7328;50.812;4.422;2022-10-16T04:24:34;-19.30;99.90
14485;DHT22;7328;50.812;4.422;2022-10-16T04:26:59;-19.30;99.90
14485;DHT22;7328;50.812;4.422;2022-10-16T04:29:25;-17.10;99.90
14485;DHT22;7328;50.812;4.422;2022-10-16T04:31:51;-17.50;99.90
14485;DHT22;7328;50.812;4.422;2022-10-16T04:34:17;-16.20;99.90
14485;DHT22;7328;50.812;4.422;2022-10-16T04:36:42;-17.80;99.90
14485;DHT22;7328;50.812;4.422;2022-10-16T04:39:08;-17.60;99.90
14485;DHT22;7328;50.812;4.422;2022-10-16T04:41:34;-16.80;99.90
14485;DHT22;7328;50.812;4.422;2022-10-16T04:43:59;-20.10;99.90
14485;DHT22;7328;50.812;4.422;2022-10-16T04:46:25;-20.80;99.90
14485;DHT22;7328;50.812;4.422;2022-10-16T04:48:51;-19.90;99.90
14485;DHT22;7328;50.812;4.422;2022-10-16T04:51:17;-16.30;99.90
14485;DHT22;7328;50.812;4.422;2022-10-16T04:53:44;-15.00;99.90
14485;DHT22;7328;50.812;4.422;2022-10-16T04:56:10;-17.50;99.90
14485;DHT22;7328;50.812;4.422;2022-10-16T04:58:35;-18.80;99.90
14485;DHT22;7328;50.812;4.422;2022-10-16T05:01:01;-21.80;99.90
14485;DHT22;7328;50.812;4.422;2022-10-16T05:03:27;-24.00;99.90
14485;DHT22;7328;50.812;4.422;2022-10-16T05:05:52;-20.40;99.90
14485;DHT22;7328;50.812;4.422;2022-10-16T05:08:18;-18.50;99.90
14485;DHT22;7328;50.812;4.422;2022-10-16T05:10:45;-18.80;99.90
14485;DHT22;7328;50.812;4.422;2022-10-16T05:13:11;-20.00;99.90
14485;DHT22;7328;50.812;4.422;2022-10-16T05:15:37;-18.10;99.90
14485;DHT22;7328;50.812;4.422;2022-10-16T05:18:03;-22.90;99.90
14485;DHT22;7328;50.812;4.422;2022-10-16T05:20:29;-19.50;99.90
14485;DHT22;7328;50.812;4.422;2022-10-16T05:22:55;-22.40;99.90
14485;DHT22;7328;50.812;4.422;2022-10-16T05:25:20;-20.10;99.90
14485;DHT22;7328;50.812;4.422;2022-10-16T05:27:49;-23.00;99.90
14485;DHT22;7328;50.812;4.422;2022-10-16T05:30:16;-21.90;99.90
14485;DHT22;7328;50.812;4.422;2022-10-16T05:32:46;-19.20;99.90
14485;DHT22;7328;50.812;4.422;2022-10-16T05:35:13;-18.20;99.90
14485;DHT22;7328;50.812;4.422;2022-10-16T05:37:39;-21.00;99.90
14485;DHT22;7328;50.812;4.422;2022-10-16T05:40:05;-18.70;99.90
14485;DHT22;7328;50.812;4.422;2022-10-16T05:42:31;-17.80;99.90
14485;DHT22;7328;50.812;4.422;2022-10-16T05:44:56;-18.00;99.90
14485;DHT22;7328;50.812;4.422;2022-10-16T05:47:22;-14.10;99.90
14485;DHT22;7328;50.812;4.422;2022-10-16T05:49:48;-19.20;99.90
14485;DHT22;7328;50.812;4.422;2022-10-16T05:52:13;-21.20;99.90
14485;DHT22;7328;50.812;4.422;2022-10-16T05:54:39;-20.60;99.90
14485;DHT22;7328;50.812;4.422;2022-10-16T05:57:05;-20.50;99.90
14485;DHT22;7328;50.812;4.422;2022-10-16T05:59:31;-19.90;99.90
14485;DHT22;7328;50.812;4.422;2022-10-16T06:01:57;-14.90;99.90
14485;DHT22;7328;50.812;4.422;2022-10-16T06:04:23;-16.50;99.90
14485;DHT22;7328;50.812;4.422;2022-10-16T06:06:49;-14.80;99.90
14485;DHT22;7328;50.812;4.422;2022-10-16T06:09:16;-15.10;99.90
14485;DHT22;7328;50.812;4.422;2022-10-16T06:11:42;-16.90;99.90
14485;DHT22;7328;50.812;4.422;2022-10-16T06:14:08;-17.80;99.90
14485;DHT22;7328;50.812;4.422;2022-10-16T06:16:35;-17.70;99.90
14485;DHT22;7328;50.812;4.422;2022-10-16T06:19:02;-20.10;99.90
14485;DHT22;7328;50.812;4.422;2022-10-16T06:21:30;-19.00;99.90
14485;DHT22;7328;50.812;4.422;2022-10-16T06:23:57;-18.50;99.90
14485;DHT22;7328;50.812;4.422;2022-10-16T06:26:25;-19.00;99.90
14485;DHT22;7328;50.812;4.422;2022-10-16T06:28:53;-16.80;99.90
14485;DHT22;7328;50.812;4.422;2022-10-16T06:31:19;-16.50;99.90
14485;DHT22;7328;50.812;4.422;2022-10-16T06:33:45;-15.70;99.90
14485;DHT22;7328;50.812;4.422;2022-10-16T06:36:15;-16.30;99.90
14485;DHT22;7328;50.812;4.422;2022-10-16T06:38:42;-17.00;99.90
14485;DHT22;7328;50.812;4.422;2022-10-16T06:41:14;-16.70;99.90
14485;DHT22;7328;50.812;4.422;2022-10-16T06:43:40;-14.70;99.90
14485;DHT22;7328;50.812;4.422;2022-10-16T06:46:07;-17.10;99.90
14485;DHT22;7328;50.812;4.422;2022-10-16T06:48:34;-16.90;99.90
14485;DHT22;7328;50.812;4.422;2022-10-16T06:51:11;-18.00;99.90
14485;DHT22;7328;50.812;4.422;2022-10-16T06:53:40;-18.40;99.90
14485;DHT22;7328;50.812;4.422;2022-10-16T06:56:14;-17.00;99.90
14485;DHT22;7328;50.812;4.422;2022-10-16T06:58:41;-18.30;99.90
14485;DHT22;7328;50.812;4.422;2022-10-16T07:01:07;-17.80;99.90
14485;DHT22;7328;50.812;4.422;2022-10-16T07:03:35;-14.20;99.90
14485;DHT22;7328;50.812;4.422;2022-10-16T07:06:06;-13.00;99.90
14485;DHT22;7328;50.812;4.422;2022-10-16T07:08:33;-16.50;99.90
14485;DHT22;7328;50.812;4.422;2022-10-16T07:11:04;-14.50;99.90
14485;DHT22;7328;50.812;4.422;2022-10-16T07:13:33;-15.40;99.90
14485;DHT22;7328;50.812;4.422;2022-10-16T07:16:08;-15.60;99.90
14485;DHT22;7328;50.812;4.422;2022-10-16T07:18:34;-22.50;99.90
14485;DHT22;7328;50.812;4.422;2022-10-16T07:21:07;-18.80;99.90
14485;DHT22;7328;50.812;4.422;2022-10-16T07:23:33;-19.50;99.90
14485;DHT22;7328;50.812;4.422;2022-10-16T07:25:59;-20.80;99.90
14485;DHT22;7328;50.812;4.422;2022-10-16T07:28:26;-17.30;99.90
14485;DHT22;7328;50.812;4.422;2022-10-16T07:30:52;-18.30;99.90
14485;DHT22;7328;50.812;4.422;2022-10-16T07:33:18;-18.50;99.90
14485;DHT22;7328;50.812;4.422;2022-10-16T07:35:53;-19.50;99.90
14485;DHT22;7328;50.812;4.422;2022-10-16T07:38:21;-16.90;99.90
14485;DHT22;7328;50.812;4.422;2022-10-16T07:40:47;-17.80;99.90
14485;DHT22;7328;50.812;4.422;2022-10-16T07:43:14;-19.10;99.90
14485;DHT22;7328;50.812;4.422;2022-10-16T07:45:49;-20.30;99.90
14485;DHT22;7328;50.812;4.422;2022-10-16T07:48:16;-18.40;99.90
14485;DHT22;7328;50.812;4.422;2022-10-16T07:50:43;-17.40;99.90
14485;DHT22;7328;50.812;4.422;2022-10-16T07:53:09;-17.20;99.90
14485;DHT22;7328;50.812;4.422;2022-10-16T07:55:35;-15.70;99.90
14485;DHT22;7328;50.812;4.422;2022-10-16T07:58:00;-19.90;99.90
14485;DHT22;7328;50.812;4.422;2022-10-16T08:00:26;-17.10;99.90
14485;DHT22;7328;50.812;4.422;2022-10-16T08:02:52;-17.10;99.90
14485;DHT22;7328;50.812;4.422;2022-10-16T08:05:18;-14.90;99.90
14485;DHT22;7328;50.812;4.422;2022-10-16T08:07:48;-18.50;99.90
14485;DHT22;7328;50.812;4.422;2022-10-16T08:10:19;-23.70;99.90
14485;DHT22;7328;50.812;4.422;2022-10-16T08:12:46;-23.90;99.90
14485;DHT22;7328;50.812;4.422;2022-10-16T08:15:12;-20.20;99.90
14485;DHT22;7328;50.812;4.422;2022-10-16T08:17:37;-19.70;99.90
14485;DHT22;7328;50.812;4.422;2022-10-16T08:20:04;-22.80;99.90
14485;DHT22;7328;50.812;4.422;2022-10-16T08:22:30;-20.40;99.90
14485;DHT22;7328;50.812;4.422;2022-10-16T08:24:56;-16.90;99.90
14485;DHT22;7328;50.812;4.422;2022-10-16T08:27:22;-20.40;99.90
14485;DHT22;7328;50.812;4.422;2022-10-16T08:29:51;-18.50;99.90
14485;DHT22;7328;50.812;4.422;2022-10-16T08:32:16;-18.80;99.90
14485;DHT22;7328;50.812;4.422;2022-10-16T08:34:42;-16.60;99.90
14485;DHT22;7328;50.812;4.422;2022-10-16T08:37:08;-15.70;99.90
14485;DHT22;7328;50.812;4.422;2022-10-16T08:39:36;-16.00;99.90
14485;DHT22;7328;50.812;4.422;2022-10-16T08:47:25;-27.30;99.90
14485;DHT22;7328;50.812;4.422;2022-10-16T08:49:58;-25.80;99.90
14485;DHT22;7328;50.812;4.422;2022-10-16T08:52:32;-25.40;99.90
14485;DHT22;7328;50.812;4.422;2022-10-16T08:54:59;-21.50;99.90
14485;DHT22;7328;50.812;4.422;2022-10-16T08:57:25;-23.00;99.90
14485;DHT22;7328;50.812;4.422;2022-10-16T08:59:53;-18.70;99.90
14485;DHT22;7328;50.812;4.422;2022-10-16T09:10:57;-19.10;99.90
14485;DHT22;7328;50.812;4.422;2022-10-16T09:13:48;-23.10;99.90
14485;DHT22;7328;50.812;4.422;2022-10-16T09:16:41;-25.60;99.90
14485;DHT22;7328;50.812;4.422;2022-10-16T09:21:39;-19.50;99.90
14485;DHT22;7328;50.812;4.422;2022-10-16T09:24:18;-22.00;99.90
14485;DHT22;7328;50.812;4.422;2022-10-16T09:26:45;-22.30;99.90
14485;DHT22;7328;50.812;4.422;2022-10-16T09:29:16;-25.40;99.90
14485;DHT22;7328;50.812;4.422;2022-10-16T09:31:43;-26.80;99.90
14485;DHT22;7328;50.812;4.422;2022-10-16T09:34:36;-23.60;99.90
14485;DHT22;7328;50.812;4.422;2022-10-16T09:37:12;-18.10;99.90
14485;DHT22;7328;50.812;4.422;2022-10-16T09:39:52;-16.70;99.90
14485;DHT22;7328;50.812;4.422;2022-10-16T09:42:28;-16.40;99.90
14485;DHT22;7328;50.812;4.422;2022-10-16T09:44:57;-18.00;99.90
14485;DHT22;7328;50.812;4.422;2022-10-16T09:47:25;-19.10;99.90
14485;DHT22;7328;50.812;4.422;2022-10-16T09:49:56;-23.50;99.90
14485;DHT22;7328;50.812;4.422;2022-10-16T09:52:24;-22.50;99.90
14485;DHT22;7328;50.812;4.422;2022-10-16T09:54:55;-25.90;99.90
14485;DHT22;7328;50.812;4.422;2022-10-16T09:57:22;-22.90;99.90
14485;DHT22;7328;50.812;4.422;2022-10-16T09:59:49;-22.00;99.90
14485;DHT22;7328;50.812;4.422;2022-10-16T10:02:18;-24.10;99.90
14485;DHT22;7328;50.812;4.422;2022-10-16T10:04:50;-25.40;99.90
14485;DHT22;7328;50.812;4.422;2022-10-16T10:07:39;-32.10;99.90
14485;DHT22;7328;50.812;4.422;2022-10-16T10:10:25;-28.00;99.90
14485;DHT22;7328;50.812;4.422;2022-10-16T10:12:53;-30.60;99.90
14485;DHT22;7328;50.812;4.422;2022-10-16T10:15:19;-28.90;99.90
14485;DHT22;7328;50.812;4.422;2022-10-16T10:17:52;-31.70;99.90
14485;DHT22;7328;50.812;4.422;2022-10-16T10:20:34;-32.00;99.90
14485;DHT22;7328;50.812;4.422;2022-10-16T10:23:13;-40.00;99.90
14485;DHT22;7328;50.812;4.422;2022-10-16T10:31:27;-39.60;99.90
14485;DHT22;7328;50.812;4.422;2022-10-16T10:34:26;-40.00;99.90
14485;DHT22;7328;50.812;4.422;2022-10-16T10:37:04;-34.40;99.90
14485;DHT22;7328;50.812;4.422;2022-10-16T10:39:48;-27.50;99.90
14485;DHT22;7328;50.812;4.422;2022-10-16T10:42:50;-33.50;99.90
14485;DHT22;7328;50.812;4.422;2022-10-16T10:45:47;-33.90;99.90
14485;DHT22;7328;50.812;4.422;2022-10-16T10:48:47;-28.00;99.90
14485;DHT22;7328;50.812;4.422;2022-10-16T10:57:27;-28.60;99.90
14485;DHT22;7328;50.812;4.422;2022-10-16T11:01:56;-27.30;99.90
14485;DHT22;7328;50.812;4.422;2022-10-16T11:07:25;-26.70;99.90
14485;DHT22;7328;50.812;4.422;2022-10-16T11:10:02;-32.90;99.90
14485;DHT22;7328;50.812;4.422;2022-10-16T11:12:33;-24.40;99.90
14485;DHT22;7328;50.812;4.422;2022-10-16T11:15:21;18.50;99.90
14485;DHT22;7328;50.812;4.422;2022-10-16T11:17:53;18.50;99.90
14485;DHT22;7328;50.812;4.422;2022-10-16T11:20:24;18.50;99.90
14485;DHT22;7328;50.812;4.422;2022-10-16T11:22:57;-40.00;99.90
14485;DHT22;7328;50.812;4.422;2022-10-16T11:25:31;-40.00;98.90
14485;DHT22;7328;50.812;4.422;2022-10-16T11:28:20;-40.00;99.90
14485;DHT22;7328;50.812;4.422;2022-10-16T11:31:05;-40.00;98.80
14485;DHT22;7328;50.812;4.422;2022-10-16T11:33:40;-40.00;96.10
14485;DHT22;7328;50.812;4.422;2022-10-16T11:41:42;-40.00;92.10
14485;DHT22;7328;50.812;4.422;2022-10-16T11:49:30;-40.00;91.40
14485;DHT22;7328;50.812;4.422;2022-10-16T11:52:20;-40.00;92.20
14485;DHT22;7328;50.812;4.422;2022-10-16T11:54:54;-40.00;93.40
14485;DHT22;7328;50.812;4.422;2022-10-16T11:57:40;-40.00;94.40
14485;DHT22;7328;50.812;4.422;2022-10-16T12:00:24;-40.00;95.40
14485;DHT22;7328;50.812;4.422;2022-10-16T12:03:04;-40.00;94.70
14485;DHT22;7328;50.812;4.422;2022-10-16T12:08:16;19.70;99.90
14485;DHT22;7328;50.812;4.422;2022-10-16T12:10:45;19.90;99.90
14485;DHT22;7328;50.812;4.422;2022-10-16T12:13:37;20.00;99.90
14485;DHT22;7328;50.812;4.422;2022-10-16T12:16:05;20.10;99.90
14485;DHT22;7328;50.812;4.422;2022-10-16T12:18:31;20.20;99.90
14485;DHT22;7328;50.812;4.422;2022-10-16T12:20:57;20.00;99.90
14485;DHT22;7328;50.812;4.422;2022-10-16T12:23:37;20.00;99.90
14485;DHT22;7328;50.812;4.422;2022-10-16T12:26:04;19.80;99.90
14485;DHT22;7328;50.812;4.422;2022-10-16T12:28:31;19.80;99.90
14485;DHT22;7328;50.812;4.422;2022-10-16T12:31:03;19.80;99.90
14485;DHT22;7328;50.812;4.422;2022-10-16T12:34:00;20.10;99.90
14485;DHT22;7328;50.812;4.422;2022-10-16T12:36:34;-40.00;93.80
14485;DHT22;7328;50.812;4.422;2022-10-16T12:39:01;-40.00;92.90
14485;DHT22;7328;50.812;4.422;2022-10-16T12:41:34;-40.00;93.10
14485;DHT22;7328;50.812;4.422;2022-10-16T12:44:02;-40.00;93.70
14485;DHT22;7328;50.812;4.422;2022-10-16T12:51:40;-40.00;95.20
14485;DHT22;7328;50.812;4.422;2022-10-16T12:57:03;-40.00;96.30
14485;DHT22;7328;50.812;4.422;2022-10-16T12:59:43;-40.00;95.40
14485;DHT22;7328;50.812;4.422;2022-10-16T13:10:33;-40.00;99.70
14485;DHT22;7328;50.812;4.422;2022-10-16T13:21:46;-40.00;96.40
14485;DHT22;7328;50.812;4.422;2022-10-16T13:24:36;-40.00;95.70
14485;DHT22;7328;50.812;4.422;2022-10-16T13:30:23;-40.00;94.80
14485;DHT22;7328;50.812;4.422;2022-10-16T13:32:48;-40.00;95.70
14485;DHT22;7328;50.812;4.422;2022-10-16T13:35:34;-40.00;95.60
14485;DHT22;7328;50.812;4.422;2022-10-16T13:38:14;-40.00;95.70
14485;DHT22;7328;50.812;4.422;2022-10-16T13:41:06;-40.00;93.80
14485;DHT22;7328;50.812;4.422;2022-10-16T13:43:50;-40.00;91.50
14485;DHT22;7328;50.812;4.422;2022-10-16T13:46:19;-40.00;93.10
14485;DHT22;7328;50.812;4.422;2022-10-16T13:48:59;-40.00;93.00
14485;DHT22;7328;50.812;4.422;2022-10-16T13:51:25;-40.00;93.90
14485;DHT22;7328;50.812;4.422;2022-10-16T13:53:51;-40.00;94.70
14485;DHT22;7328;50.812;4.422;2022-10-16T13:56:20;-40.00;96.10
14485;DHT22;7328;50.812;4.422;2022-10-16T13:58:57;-40.00;98.20
14485;DHT22;7328;50.812;4.422;2022-10-16T14:01:29;-40.00;99.20
14485;DHT22;7328;50.812;4.422;2022-10-16T14:04:05;-40.00;97.50
14485;DHT22;7328;50.812;4.422;2022-10-16T14:06:31;-40.00;98.40
14485;DHT22;7328;50.812;4.422;2022-10-16T14:09:08;-40.00;98.30
14485;DHT22;7328;50.812;4.422;2022-10-16T14:11:46;-40.00;98.40
14485;DHT22;7328;50.812;4.422;2022-10-16T14:14:14;-40.00;97.70
14485;DHT22;7328;50.812;4.422;2022-10-16T14:16:42;-40.00;97.80
14485;DHT22;7328;50.812;4.422;2022-10-16T14:19:28;-40.00;98.50
14485;DHT22;7328;50.812;4.422;2022-10-16T14:21:54;-40.00;99.90
14485;DHT22;7328;50.812;4.422;2022-10-16T14:26:53;-40.00;99.90
14485;DHT22;7328;50.812;4.422;2022-10-16T14:29:22;-40.00;99.90
14485;DHT22;7328;50.812;4.422;2022-10-16T14:32:03;-40.00;99.30
14485;DHT22;7328;50.812;4.422;2022-10-16T14:34:35;-40.00;99.90
14485;DHT22;7328;50.812;4.422;2022-10-16T14:37:18;-40.00;99.90
14485;DHT22;7328;50.812;4.422;2022-10-16T14:39:49;-40.00;99.40
14485;DHT22;7328;50.812;4.422;2022-10-16T14:42:17;-40.00;99.90
14485;DHT22;7328;50.812;4.422;2022-10-16T14:44:45;-40.00;98.90
14485;DHT22;7328;50.812;4.422;2022-10-16T14:47:16;-40.00;98.60
14485;DHT22;7328;50.812;4.422;2022-10-16T14:49:47;-40.00;97.10
14485;DHT22;7328;50.812;4.422;2022-10-16T14:52:14;-39.00;99.90
14485;DHT22;7328;50.812;4.422;2022-10-16T14:54:40;-37.80;99.90
14485;DHT22;7328;50.812;4.422;2022-10-16T14:57:19;-40.00;99.90
14485;DHT22;7328;50.812;4.422;2022-10-16T14:59:47;-40.00;99.20
14485;DHT22;7328;50.812;4.422;2022-10-16T15:04:48;-40.00;99.90
14485;DHT22;7328;50.812;4.422;2022-10-16T15:07:14;-40.00;99.90
14485;DHT22;7328;50.812;4.422;2022-10-16T15:09:40;-40.00;99.90
14485;DHT22;7328;50.812;4.422;2022-10-16T15:12:06;-32.00;99.90
14485;DHT22;7328;50.812;4.422;2022-10-16T15:14:32;-35.00;99.90
14485;DHT22;7328;50.812;4.422;2022-10-16T15:16:58;-36.60;99.90
14485;DHT22;7328;50.812;4.422;2022-10-16T15:19:23;-31.10;99.90
14485;DHT22;7328;50.812;4.422;2022-10-16T15:21:49;-31.90;99.90
14485;DHT22;7328;50.812;4.422;2022-10-16T15:24:15;-34.20;99.90
14485;DHT22;7328;50.812;4.422;2022-10-16T15:26:41;-32.50;99.90
14485;DHT22;7328;50.812;4.422;2022-10-16T15:29:07;-40.00;99.90
14485;DHT22;7328;50.812;4.422;2022-10-16T15:31:33;-40.00;99.90
14485;DHT22;7328;50.812;4.422;2022-10-16T15:33:59;17.00;99.90
14485;DHT22;7328;50.812;4.422;2022-10-16T15:36:34;19.00;99.90
14485;DHT22;7328;50.812;4.422;2022-10-16T15:39:03;18.80;99.90
14485;DHT22;7328;50.812;4.422;2022-10-16T15:41:28;18.70;99.90
14485;DHT22;7328;50.812;4.422;2022-10-16T15:43:54;18.50;99.90
14485;DHT22;7328;50.812;4.422;2022-10-16T15:46:22;18.40;99.90
14485;DHT22;7328;50.812;4.422;2022-10-16T15:48:49;18.20;99.90
14485;DHT22;7328;50.812;4.422;2022-10-16T15:51:16;18.00;99.90
14485;DHT22;7328;50.812;4.422;2022-10-16T15:53:42;17.90;99.90
14485;DHT22;7328;50.812;4.422;2022-10-16T15:56:09;17.70;99.90
14485;DHT22;7328;50.812;4.422;2022-10-16T15:58:36;17.20;99.90
14485;DHT22;7328;50.812;4.422;2022-10-16T16:01:03;18.20;99.90
14485;DHT22;7328;50.812;4.422;2022-10-16T16:03:30;18.10;99.90
14485;DHT22;7328;50.812;4.422;2022-10-16T16:05:56;18.00;99.90
14485;DHT22;7328;50.812;4.422;2022-10-16T16:08:22;18.00;99.90
14485;DHT22;7328;50.812;4.422;2022-10-16T16:11:02;17.90;99.90
14485;DHT22;7328;50.812;4.422;2022-10-16T16:13:28;17.80;99.90
14485;DHT22;7328;50.812;4.422;2022-10-16T16:15:54;17.70;99.90
14485;DHT22;7328;50.812;4.422;2022-10-16T16:18:20;17.60;99.90
14485;DHT22;7328;50.812;4.422;2022-10-16T16:20:46;17.60;99.90
14485;DHT22;7328;50.812;4.422;2022-10-16T16:23:12;17.50;99.90
14485;DHT22;7328;50.812;4.422;2022-10-16T16:25:37;17.40;99.90
14485;DHT22;7328;50.812;4.422;2022-10-16T16:28:03;17.30;99.90
14485;DHT22;7328;50.812;4.422;2022-10-16T16:30:29;17.20;99.90
14485;DHT22;7328;50.812;4.422;2022-10-16T16:32:54;17.00;99.90
14485;DHT22;7328;50.812;4.422;2022-10-16T16:35:20;16.80;99.90
14485;DHT22;7328;50.812;4.422;2022-10-16T16:37:47;16.50;99.90
14485;DHT22;7328;50.812;4.422;2022-10-16T16:40:13;-34.70;99.90
14485;DHT22;7328;50.812;4.422;2022-10-16T16:42:38;-40.00;99.90
14485;DHT22;7328;50.812;4.422;2022-10-16T16:45:05;-34.00;99.90
14485;DHT22;7328;50.812;4.422;2022-10-16T16:47:31;-30.00;99.90
14485;DHT22;7328;50.812;4.422;2022-10-16T16:49:56;6.60;99.90
14485;DHT22;7328;50.812;4.422;2022-10-16T16:52:22;16.80;99.90
14485;DHT22;7328;50.812;4.422;2022-10-16T16:54:48;16.70;99.90
14485;DHT22;7328;50.812;4.422;2022-10-16T16:57:20;16.70;99.90
14485;DHT22;7328;50.812;4.422;2022-10-16T16:59:46;16.60;99.90
14485;DHT22;7328;50.812;4.422;2022-10-16T17:02:11;16.60;99.90
14485;DHT22;7328;50.812;4.422;2022-10-16T17:04:37;16.60;99.90
14485;DHT22;7328;50.812;4.422;2022-10-16T17:07:03;16.50;99.90
14485;DHT22;7328;50.812;4.422;2022-10-16T17:09:31;16.60;99.90
14485;DHT22;7328;50.812;4.422;2022-10-16T17:11:56;16.50;99.90
14485;DHT22;7328;50.812;4.422;2022-10-16T17:14:22;15.80;99.90
14485;DHT22;7328;50.812;4.422;2022-10-16T17:16:48;-29.50;99.90
14485;DHT22;7328;50.812;4.422;2022-10-16T17:19:17;-32.80;99.90
14485;DHT22;7328;50.812;4.422;2022-10-16T17:21:43;-28.90;99.90
14485;DHT22;7328;50.812;4.422;2022-10-16T17:24:09;-28.80;99.90
14485;DHT22;7328;50.812;4.422;2022-10-16T17:26:35;-26.40;99.90
14485;DHT22;7328;50.812;4.422;2022-10-16T17:29:03;-24.30;99.90
14485;DHT22;7328;50.812;4.422;2022-10-16T17:31:34;-28.20;99.90